Terminal Aerodrome Forecast
Issued by NWS Cleveland, OH

Home | Current Version | Previous Version | Graphics & Text | Print | Product List | Glossary Off
Versions: 1 2 3 4 5 6 7 8 9 10 11 12 13 14 15 16 17 18 19 20 21 22 23

976
FTUS41 KCLE 272215 AAA
TAFCAK
TAF AMD
KCAK 272215Z 2722/2818 20008KT P6SM SCT018 OVC050
      TEMPO 2722/2802 BKN018
     FM281400 16008KT 5SM -SHRA OVC025 PROB30 2814/2818 4SM -SHRA BR
      OVC010=

USA.gov is the U.S. government's official web portal to all federal, state and local government web resources and services.